sensor_id;sensor_type;location;lat;lon;timestamp;temperature;humidity
39017;DHT22;24784;45.582;5.276;2023-11-19T00:00:43;7.20;99.90
39017;DHT22;24784;45.582;5.276;2023-11-19T00:03:09;7.00;99.90
39017;DHT22;24784;45.582;5.276;2023-11-19T00:05:38;6.70;99.90
39017;DHT22;24784;45.582;5.276;2023-11-19T00:08:04;6.70;99.90
39017;DHT22;24784;45.582;5.276;2023-11-19T00:10:31;6.70;99.90
39017;DHT22;24784;45.582;5.276;2023-11-19T00:12:56;6.80;99.90
39017;DHT22;24784;45.582;5.276;2023-11-19T00:15:22;6.90;99.90
39017;DHT22;24784;45.582;5.276;2023-11-19T00:17:49;6.90;99.90
39017;DHT22;24784;45.582;5.276;2023-11-19T00:20:19;6.90;99.90
39017;DHT22;24784;45.582;5.276;2023-11-19T00:22:45;6.90;99.90
39017;DHT22;24784;45.582;5.276;2023-11-19T00:25:19;6.90;99.90
39017;DHT22;24784;45.582;5.276;2023-11-19T00:27:45;6.90;99.90
39017;DHT22;24784;45.582;5.276;2023-11-19T00:30:11;6.90;99.90
39017;DHT22;24784;45.582;5.276;2023-11-19T00:32:37;6.90;99.90
39017;DHT22;24784;45.582;5.276;2023-11-19T00:35:05;6.90;99.90
39017;DHT22;24784;45.582;5.276;2023-11-19T00:37:31;7.00;99.90
39017;DHT22;24784;45.582;5.276;2023-11-19T00:39:57;7.00;99.90
39017;DHT22;24784;45.582;5.276;2023-11-19T00:42:23;6.90;99.90
39017;DHT22;24784;45.582;5.276;2023-11-19T00:44:52;6.80;99.90
39017;DHT22;24784;45.582;5.276;2023-11-19T00:47:18;6.80;99.90
39017;DHT22;24784;45.582;5.276;2023-11-19T00:49:47;6.80;99.90
39017;DHT22;24784;45.582;5.276;2023-11-19T00:52:14;6.80;99.90
39017;DHT22;24784;45.582;5.276;2023-11-19T00:54:40;6.80;99.90
39017;DHT22;24784;45.582;5.276;2023-11-19T00:57:06;6.80;99.90
39017;DHT22;24784;45.582;5.276;2023-11-19T00:59:31;6.70;99.90
39017;DHT22;24784;45.582;5.276;2023-11-19T01:01:58;6.80;99.90
39017;DHT22;24784;45.582;5.276;2023-11-19T01:04:28;6.80;99.90
39017;DHT22;24784;45.582;5.276;2023-11-19T01:06:54;6.70;99.90
39017;DHT22;24784;45.582;5.276;2023-11-19T01:09:20;6.80;99.90
39017;DHT22;24784;45.582;5.276;2023-11-19T01:11:45;6.70;99.90
39017;DHT22;24784;45.582;5.276;2023-11-19T01:14:11;6.70;99.90
39017;DHT22;24784;45.582;5.276;2023-11-19T01:16:36;6.70;99.90
39017;DHT22;24784;45.582;5.276;2023-11-19T01:19:02;6.60;99.90
39017;DHT22;24784;45.582;5.276;2023-11-19T01:21:30;6.70;99.90
39017;DHT22;24784;45.582;5.276;2023-11-19T01:23:57;6.70;99.90
39017;DHT22;24784;45.582;5.276;2023-11-19T01:26:23;6.70;99.90
39017;DHT22;24784;45.582;5.276;2023-11-19T01:28:49;6.70;99.90
39017;DHT22;24784;45.582;5.276;2023-11-19T01:31:18;6.70;99.90
39017;DHT22;24784;45.582;5.276;2023-11-19T01:33:43;6.70;99.90
39017;DHT22;24784;45.582;5.276;2023-11-19T01:36:09;6.70;99.90
39017;DHT22;24784;45.582;5.276;2023-11-19T01:38:38;6.70;99.90
39017;DHT22;24784;45.582;5.276;2023-11-19T01:41:04;6.70;99.90
39017;DHT22;24784;45.582;5.276;2023-11-19T01:43:37;6.70;99.90
39017;DHT22;24784;45.582;5.276;2023-11-19T01:46:05;6.70;99.90
39017;DHT22;24784;45.582;5.276;2023-11-19T01:48:33;6.70;99.90
39017;DHT22;24784;45.582;5.276;2023-11-19T01:51:00;6.70;99.90
39017;DHT22;24784;45.582;5.276;2023-11-19T01:53:27;6.70;99.90
39017;DHT22;24784;45.582;5.276;2023-11-19T01:55:54;6.70;99.90
39017;DHT22;24784;45.582;5.276;2023-11-19T01:58:21;6.70;99.90
39017;DHT22;24784;45.582;5.276;2023-11-19T02:00:48;6.80;99.90
39017;DHT22;24784;45.582;5.276;2023-11-19T02:03:14;6.80;99.90
39017;DHT22;24784;45.582;5.276;2023-11-19T02:05:40;6.80;99.90
39017;DHT22;24784;45.582;5.276;2023-11-19T02:08:06;6.80;99.90
39017;DHT22;24784;45.582;5.276;2023-11-19T02:10:31;6.80;99.90
39017;DHT22;24784;45.582;5.276;2023-11-19T02:12:58;6.90;99.90
39017;DHT22;24784;45.582;5.276;2023-11-19T02:15:24;6.90;99.90
39017;DHT22;24784;45.582;5.276;2023-11-19T02:17:50;6.80;99.90
39017;DHT22;24784;45.582;5.276;2023-11-19T02:20:17;6.80;99.90
39017;DHT22;24784;45.582;5.276;2023-11-19T02:22:48;6.90;99.90
39017;DHT22;24784;45.582;5.276;2023-11-19T02:25:29;6.90;99.90
39017;DHT22;24784;45.582;5.276;2023-11-19T02:28:02;6.90;99.90
39017;DHT22;24784;45.582;5.276;2023-11-19T02:30:28;6.90;99.90
39017;DHT22;24784;45.582;5.276;2023-11-19T02:32:55;7.00;99.90
39017;DHT22;24784;45.582;5.276;2023-11-19T02:35:23;7.00;99.90
39017;DHT22;24784;45.582;5.276;2023-11-19T02:37:49;7.00;99.90
39017;DHT22;24784;45.582;5.276;2023-11-19T02:40:14;7.00;99.90
39017;DHT22;24784;45.582;5.276;2023-11-19T02:42:40;7.10;99.90
39017;DHT22;24784;45.582;5.276;2023-11-19T02:45:07;7.10;99.90
39017;DHT22;24784;45.582;5.276;2023-11-19T02:47:33;7.10;99.90
39017;DHT22;24784;45.582;5.276;2023-11-19T02:49:59;7.10;99.90
39017;DHT22;24784;45.582;5.276;2023-11-19T02:52:25;7.10;99.90
39017;DHT22;24784;45.582;5.276;2023-11-19T02:54:51;7.10;99.90
39017;DHT22;24784;45.582;5.276;2023-11-19T02:57:18;7.20;99.90
39017;DHT22;24784;45.582;5.276;2023-11-19T02:59:46;7.20;99.90
39017;DHT22;24784;45.582;5.276;2023-11-19T03:02:12;7.20;99.90
39017;DHT22;24784;45.582;5.276;2023-11-19T03:04:38;7.30;99.90
39017;DHT22;24784;45.582;5.276;2023-11-19T03:07:05;7.20;99.90
39017;DHT22;24784;45.582;5.276;2023-11-19T03:09:32;7.20;99.90
39017;DHT22;24784;45.582;5.276;2023-11-19T03:11:59;7.30;99.90
39017;DHT22;24784;45.582;5.276;2023-11-19T03:14:24;7.30;99.90
39017;DHT22;24784;45.582;5.276;2023-11-19T03:16:50;7.40;99.90
39017;DHT22;24784;45.582;5.276;2023-11-19T03:19:16;7.40;99.90
39017;DHT22;24784;45.582;5.276;2023-11-19T03:21:42;7.40;99.90
39017;DHT22;24784;45.582;5.276;2023-11-19T03:24:07;7.40;99.90
39017;DHT22;24784;45.582;5.276;2023-11-19T03:26:34;7.40;99.90
39017;DHT22;24784;45.582;5.276;2023-11-19T03:28:59;7.40;99.90
39017;DHT22;24784;45.582;5.276;2023-11-19T03:31:26;7.40;99.90
39017;DHT22;24784;45.582;5.276;2023-11-19T03:33:51;7.40;99.90
39017;DHT22;24784;45.582;5.276;2023-11-19T03:36:17;7.40;99.90
39017;DHT22;24784;45.582;5.276;2023-11-19T03:38:43;7.40;99.90
39017;DHT22;24784;45.582;5.276;2023-11-19T03:41:12;7.40;99.90
39017;DHT22;24784;45.582;5.276;2023-11-19T03:43:38;7.40;99.90
39017;DHT22;24784;45.582;5.276;2023-11-19T03:46:05;7.50;99.90
39017;DHT22;24784;45.582;5.276;2023-11-19T03:48:31;7.50;99.90
39017;DHT22;24784;45.582;5.276;2023-11-19T03:50:56;7.50;99.90
39017;DHT22;24784;45.582;5.276;2023-11-19T03:53:22;7.50;99.90
39017;DHT22;24784;45.582;5.276;2023-11-19T03:55:49;7.60;99.90
39017;DHT22;24784;45.582;5.276;2023-11-19T03:58:15;7.60;99.90
39017;DHT22;24784;45.582;5.276;2023-11-19T04:00:41;7.60;99.90
39017;DHT22;24784;45.582;5.276;2023-11-19T04:03:06;7.60;99.90
39017;DHT22;24784;45.582;5.276;2023-11-19T04:05:32;7.60;99.90
39017;DHT22;24784;45.582;5.276;2023-11-19T04:07:57;7.60;99.90
39017;DHT22;24784;45.582;5.276;2023-11-19T04:10:23;7.60;99.90
39017;DHT22;24784;45.582;5.276;2023-11-19T04:12:49;7.70;99.90
39017;DHT22;24784;45.582;5.276;2023-11-19T04:15:14;7.70;99.90
39017;DHT22;24784;45.582;5.276;2023-11-19T04:17:40;7.70;99.90
39017;DHT22;24784;45.582;5.276;2023-11-19T04:20:06;7.70;99.90
39017;DHT22;24784;45.582;5.276;2023-11-19T04:22:36;7.70;99.90
39017;DHT22;24784;45.582;5.276;2023-11-19T04:25:01;7.70;99.90
39017;DHT22;24784;45.582;5.276;2023-11-19T04:27:27;7.70;99.90
39017;DHT22;24784;45.582;5.276;2023-11-19T04:29:53;7.80;99.90
39017;DHT22;24784;45.582;5.276;2023-11-19T04:32:18;7.80;99.90
39017;DHT22;24784;45.582;5.276;2023-11-19T04:34:44;7.80;99.90
39017;DHT22;24784;45.582;5.276;2023-11-19T04:37:10;7.80;99.90
39017;DHT22;24784;45.582;5.276;2023-11-19T04:39:35;7.80;99.90
39017;DHT22;24784;45.582;5.276;2023-11-19T04:42:02;7.80;99.90
39017;DHT22;24784;45.582;5.276;2023-11-19T04:44:29;7.80;99.90
39017;DHT22;24784;45.582;5.276;2023-11-19T04:46:55;7.80;99.90
39017;DHT22;24784;45.582;5.276;2023-11-19T04:49:21;7.80;99.90
39017;DHT22;24784;45.582;5.276;2023-11-19T04:51:47;7.80;99.90
39017;DHT22;24784;45.582;5.276;2023-11-19T04:54:12;7.80;99.90
39017;DHT22;24784;45.582;5.276;2023-11-19T04:56:38;7.80;99.90
39017;DHT22;24784;45.582;5.276;2023-11-19T04:59:05;7.80;99.90
39017;DHT22;24784;45.582;5.276;2023-11-19T05:01:34;7.80;99.90
39017;DHT22;24784;45.582;5.276;2023-11-19T05:04:01;7.80;99.90
39017;DHT22;24784;45.582;5.276;2023-11-19T05:06:30;7.90;99.90
39017;DHT22;24784;45.582;5.276;2023-11-19T05:08:57;7.90;99.90
39017;DHT22;24784;45.582;5.276;2023-11-19T05:11:23;7.90;99.90
39017;DHT22;24784;45.582;5.276;2023-11-19T05:13:49;7.80;99.90
39017;DHT22;24784;45.582;5.276;2023-11-19T05:16:15;7.90;99.90
39017;DHT22;24784;45.582;5.276;2023-11-19T05:18:41;7.90;99.90
39017;DHT22;24784;45.582;5.276;2023-11-19T05:21:07;7.90;99.90
39017;DHT22;24784;45.582;5.276;2023-11-19T05:23:33;7.90;99.90
39017;DHT22;24784;45.582;5.276;2023-11-19T05:26:00;7.90;99.90
39017;DHT22;24784;45.582;5.276;2023-11-19T05:28:26;7.90;99.90
39017;DHT22;24784;45.582;5.276;2023-11-19T05:30:51;7.90;99.90
39017;DHT22;24784;45.582;5.276;2023-11-19T05:33:17;8.00;99.90
39017;DHT22;24784;45.582;5.276;2023-11-19T05:35:43;8.00;99.90
39017;DHT22;24784;45.582;5.276;2023-11-19T05:38:08;8.00;99.90
39017;DHT22;24784;45.582;5.276;2023-11-19T05:40:35;8.00;99.90
39017;DHT22;24784;45.582;5.276;2023-11-19T05:43:01;8.00;99.90
39017;DHT22;24784;45.582;5.276;2023-11-19T05:45:27;8.00;99.90
39017;DHT22;24784;45.582;5.276;2023-11-19T05:47:52;8.00;99.90
39017;DHT22;24784;45.582;5.276;2023-11-19T05:50:18;7.90;99.90
39017;DHT22;24784;45.582;5.276;2023-11-19T05:52:44;7.80;99.90
39017;DHT22;24784;45.582;5.276;2023-11-19T05:55:09;7.80;99.90
39017;DHT22;24784;45.582;5.276;2023-11-19T05:57:38;7.80;99.90
39017;DHT22;24784;45.582;5.276;2023-11-19T06:00:06;7.80;99.90
39017;DHT22;24784;45.582;5.276;2023-11-19T06:02:35;7.80;99.90
39017;DHT22;24784;45.582;5.276;2023-11-19T06:05:03;7.80;99.90
39017;DHT22;24784;45.582;5.276;2023-11-19T06:07:31;7.80;99.90
39017;DHT22;24784;45.582;5.276;2023-11-19T06:09:56;7.80;99.90
39017;DHT22;24784;45.582;5.276;2023-11-19T06:12:22;7.80;99.90
39017;DHT22;24784;45.582;5.276;2023-11-19T06:14:47;7.80;99.90
39017;DHT22;24784;45.582;5.276;2023-11-19T06:17:13;7.80;99.90
39017;DHT22;24784;45.582;5.276;2023-11-19T06:19:39;7.80;99.90
39017;DHT22;24784;45.582;5.276;2023-11-19T06:22:04;7.70;99.90
39017;DHT22;24784;45.582;5.276;2023-11-19T06:24:30;7.70;99.90
39017;DHT22;24784;45.582;5.276;2023-11-19T06:26:55;7.70;99.90
39017;DHT22;24784;45.582;5.276;2023-11-19T06:29:21;7.70;99.90
39017;DHT22;24784;45.582;5.276;2023-11-19T06:31:47;7.60;99.90
39017;DHT22;24784;45.582;5.276;2023-11-19T06:34:15;7.50;99.90
39017;DHT22;24784;45.582;5.276;2023-11-19T06:36:41;7.50;99.90
39017;DHT22;24784;45.582;5.276;2023-11-19T06:39:09;7.50;99.90
39017;DHT22;24784;45.582;5.276;2023-11-19T06:41:34;7.50;99.90
39017;DHT22;24784;45.582;5.276;2023-11-19T06:44:00;7.50;99.90
39017;DHT22;24784;45.582;5.276;2023-11-19T06:46:25;7.50;99.90
39017;DHT22;24784;45.582;5.276;2023-11-19T06:48:51;7.50;99.90
39017;DHT22;24784;45.582;5.276;2023-11-19T06:51:17;7.50;99.90
39017;DHT22;24784;45.582;5.276;2023-11-19T06:53:42;7.40;99.90
39017;DHT22;24784;45.582;5.276;2023-11-19T06:56:23;7.30;99.90
39017;DHT22;24784;45.582;5.276;2023-11-19T06:58:49;7.30;99.90
39017;DHT22;24784;45.582;5.276;2023-11-19T07:01:16;7.30;99.90
39017;DHT22;24784;45.582;5.276;2023-11-19T07:03:42;7.30;99.90
39017;DHT22;24784;45.582;5.276;2023-11-19T07:06:07;7.30;99.90
39017;DHT22;24784;45.582;5.276;2023-11-19T07:08:34;7.20;99.90
39017;DHT22;24784;45.582;5.276;2023-11-19T07:10:59;7.30;99.90
39017;DHT22;24784;45.582;5.276;2023-11-19T07:13:25;7.30;99.90
39017;DHT22;24784;45.582;5.276;2023-11-19T07:15:55;7.30;99.90
39017;DHT22;24784;45.582;5.276;2023-11-19T07:18:21;7.20;99.90
39017;DHT22;24784;45.582;5.276;2023-11-19T07:20:48;7.20;99.90
39017;DHT22;24784;45.582;5.276;2023-11-19T07:23:13;7.20;99.90
39017;DHT22;24784;45.582;5.276;2023-11-19T07:25:42;7.20;99.90
39017;DHT22;24784;45.582;5.276;2023-11-19T07:28:08;7.10;99.90
39017;DHT22;24784;45.582;5.276;2023-11-19T07:30:35;7.10;99.90
39017;DHT22;24784;45.582;5.276;2023-11-19T07:33:01;7.20;99.90
39017;DHT22;24784;45.582;5.276;2023-11-19T07:35:29;7.20;99.90
39017;DHT22;24784;45.582;5.276;2023-11-19T07:37:56;7.10;99.90
39017;DHT22;24784;45.582;5.276;2023-11-19T07:40:23;7.20;99.90
39017;DHT22;24784;45.582;5.276;2023-11-19T07:42:48;7.20;99.90
39017;DHT22;24784;45.582;5.276;2023-11-19T07:45:14;7.20;99.90
39017;DHT22;24784;45.582;5.276;2023-11-19T07:47:40;7.20;99.90
39017;DHT22;24784;45.582;5.276;2023-11-19T07:50:06;7.30;99.90
39017;DHT22;24784;45.582;5.276;2023-11-19T07:52:31;7.30;99.90
39017;DHT22;24784;45.582;5.276;2023-11-19T07:54:57;7.40;99.90
39017;DHT22;24784;45.582;5.276;2023-11-19T07:57:22;7.60;99.90
39017;DHT22;24784;45.582;5.276;2023-11-19T07:59:49;7.90;99.90
39017;DHT22;24784;45.582;5.276;2023-11-19T08:02:15;8.10;99.90
39017;DHT22;24784;45.582;5.276;2023-11-19T08:04:40;8.30;99.90
39017;DHT22;24784;45.582;5.276;2023-11-19T08:07:11;8.30;99.90
39017;DHT22;24784;45.582;5.276;2023-11-19T08:09:36;8.30;99.90
39017;DHT22;24784;45.582;5.276;2023-11-19T08:12:03;8.30;99.90
39017;DHT22;24784;45.582;5.276;2023-11-19T08:14:29;8.40;99.90
39017;DHT22;24784;45.582;5.276;2023-11-19T08:16:55;8.40;99.90
39017;DHT22;24784;45.582;5.276;2023-11-19T08:19:20;8.40;99.90
39017;DHT22;24784;45.582;5.276;2023-11-19T08:21:46;8.50;99.90
39017;DHT22;24784;45.582;5.276;2023-11-19T08:24:11;8.60;99.90
39017;DHT22;24784;45.582;5.276;2023-11-19T08:26:37;8.60;99.90
39017;DHT22;24784;45.582;5.276;2023-11-19T08:29:03;8.70;99.90
39017;DHT22;24784;45.582;5.276;2023-11-19T08:31:28;8.70;99.90
39017;DHT22;24784;45.582;5.276;2023-11-19T08:33:54;8.70;99.90
39017;DHT22;24784;45.582;5.276;2023-11-19T08:36:20;8.70;99.90
39017;DHT22;24784;45.582;5.276;2023-11-19T08:38:46;8.60;99.90
39017;DHT22;24784;45.582;5.276;2023-11-19T08:41:13;8.60;99.90
39017;DHT22;24784;45.582;5.276;2023-11-19T08:43:39;8.50;99.90
39017;DHT22;24784;45.582;5.276;2023-11-19T08:46:10;8.60;99.90
39017;DHT22;24784;45.582;5.276;2023-11-19T08:48:36;8.50;99.90
39017;DHT22;24784;45.582;5.276;2023-11-19T08:51:01;8.50;99.90
39017;DHT22;24784;45.582;5.276;2023-11-19T08:53:27;8.50;99.90
39017;DHT22;24784;45.582;5.276;2023-11-19T08:55:53;8.50;99.90
39017;DHT22;24784;45.582;5.276;2023-11-19T08:58:18;8.60;99.90
39017;DHT22;24784;45.582;5.276;2023-11-19T09:00:44;8.60;99.90
39017;DHT22;24784;45.582;5.276;2023-11-19T09:03:10;8.70;99.90
39017;DHT22;24784;45.582;5.276;2023-11-19T09:05:35;8.80;99.90
39017;DHT22;24784;45.582;5.276;2023-11-19T09:08:02;8.80;99.90
39017;DHT22;24784;45.582;5.276;2023-11-19T09:10:27;8.90;99.90
39017;DHT22;24784;45.582;5.276;2023-11-19T09:12:54;9.00;99.90
39017;DHT22;24784;45.582;5.276;2023-11-19T09:15:20;9.10;99.90
39017;DHT22;24784;45.582;5.276;2023-11-19T09:17:46;9.10;99.90
39017;DHT22;24784;45.582;5.276;2023-11-19T09:20:11;9.10;99.90
39017;DHT22;24784;45.582;5.276;2023-11-19T09:22:40;9.10;99.90
39017;DHT22;24784;45.582;5.276;2023-11-19T09:25:06;9.10;99.90
39017;DHT22;24784;45.582;5.276;2023-11-19T09:27:32;9.20;99.90
39017;DHT22;24784;45.582;5.276;2023-11-19T09:29:57;9.40;99.90
39017;DHT22;24784;45.582;5.276;2023-11-19T09:32:24;9.50;99.90
39017;DHT22;24784;45.582;5.276;2023-11-19T09:34:50;9.70;99.90
39017;DHT22;24784;45.582;5.276;2023-11-19T09:37:16;9.80;99.90
39017;DHT22;24784;45.582;5.276;2023-11-19T09:39:42;9.90;99.90
39017;DHT22;24784;45.582;5.276;2023-11-19T09:42:10;10.00;99.90
39017;DHT22;24784;45.582;5.276;2023-11-19T09:44:38;10.20;99.90
39017;DHT22;24784;45.582;5.276;2023-11-19T09:47:05;10.30;99.90
39017;DHT22;24784;45.582;5.276;2023-11-19T09:49:31;10.40;99.90
39017;DHT22;24784;45.582;5.276;2023-11-19T09:51:57;10.40;99.90
39017;DHT22;24784;45.582;5.276;2023-11-19T09:54:23;10.60;99.90
39017;DHT22;24784;45.582;5.276;2023-11-19T09:56:50;10.90;99.90
39017;DHT22;24784;45.582;5.276;2023-11-19T09:59:16;10.90;99.90
39017;DHT22;24784;45.582;5.276;2023-11-19T10:01:43;11.10;99.90
39017;DHT22;24784;45.582;5.276;2023-11-19T10:04:12;11.30;99.90
39017;DHT22;24784;45.582;5.276;2023-11-19T10:06:41;11.40;99.90
39017;DHT22;24784;45.582;5.276;2023-11-19T10:09:07;11.90;99.90
39017;DHT22;24784;45.582;5.276;2023-11-19T10:11:33;11.90;99.90
39017;DHT22;24784;45.582;5.276;2023-11-19T10:13:59;12.20;99.90
39017;DHT22;24784;45.582;5.276;2023-11-19T10:16:29;12.40;99.90
39017;DHT22;24784;45.582;5.276;2023-11-19T10:18:58;12.60;99.90
39017;DHT22;24784;45.582;5.276;2023-11-19T10:21:24;12.50;99.90
39017;DHT22;24784;45.582;5.276;2023-11-19T10:23:54;12.40;99.90
39017;DHT22;24784;45.582;5.276;2023-11-19T10:26:22;12.30;99.90
39017;DHT22;24784;45.582;5.276;2023-11-19T10:28:48;12.20;99.90
39017;DHT22;24784;45.582;5.276;2023-11-19T10:31:14;12.10;99.90
39017;DHT22;24784;45.582;5.276;2023-11-19T10:33:40;12.10;99.90
39017;DHT22;24784;45.582;5.276;2023-11-19T10:36:06;12.10;99.90
39017;DHT22;24784;45.582;5.276;2023-11-19T10:38:32;12.00;99.90
39017;DHT22;24784;45.582;5.276;2023-11-19T10:40:57;12.00;99.90
39017;DHT22;24784;45.582;5.276;2023-11-19T10:43:24;12.00;99.90
39017;DHT22;24784;45.582;5.276;2023-11-19T10:45:50;12.10;99.90
39017;DHT22;24784;45.582;5.276;2023-11-19T10:48:16;12.10;99.90
39017;DHT22;24784;45.582;5.276;2023-11-19T10:50:43;12.20;99.90
39017;DHT22;24784;45.582;5.276;2023-11-19T10:53:12;12.30;99.90
39017;DHT22;24784;45.582;5.276;2023-11-19T10:55:41;12.40;99.90
39017;DHT22;24784;45.582;5.276;2023-11-19T10:58:09;12.40;99.90
39017;DHT22;24784;45.582;5.276;2023-11-19T11:00:39;12.50;99.90
39017;DHT22;24784;45.582;5.276;2023-11-19T11:05:43;12.50;99.90
39017;DHT22;24784;45.582;5.276;2023-11-19T11:08:10;12.60;99.90
39017;DHT22;24784;45.582;5.276;2023-11-19T11:10:42;12.50;99.90
39017;DHT22;24784;45.582;5.276;2023-11-19T11:13:08;12.50;99.90
39017;DHT22;24784;45.582;5.276;2023-11-19T11:15:35;12.50;99.90
39017;DHT22;24784;45.582;5.276;2023-11-19T11:18:02;12.50;99.90
39017;DHT22;24784;45.582;5.276;2023-11-19T11:20:31;12.50;99.90
39017;DHT22;24784;45.582;5.276;2023-11-19T11:29:05;12.70;99.90
39017;DHT22;24784;45.582;5.276;2023-11-19T11:39:57;12.70;99.90
39017;DHT22;24784;45.582;5.276;2023-11-19T11:45:07;12.70;99.90
39017;DHT22;24784;45.582;5.276;2023-11-19T11:55:37;12.70;99.90
39017;DHT22;24784;45.582;5.276;2023-11-19T11:58:21;12.70;99.90
39017;DHT22;24784;45.582;5.276;2023-11-19T12:00:51;12.90;99.90
39017;DHT22;24784;45.582;5.276;2023-11-19T12:03:20;12.90;99.90
39017;DHT22;24784;45.582;5.276;2023-11-19T12:05:47;12.90;99.90
39017;DHT22;24784;45.582;5.276;2023-11-19T12:08:14;13.00;99.90
39017;DHT22;24784;45.582;5.276;2023-11-19T12:10:51;13.10;99.90
39017;DHT22;24784;45.582;5.276;2023-11-19T12:13:18;13.10;99.90
39017;DHT22;24784;45.582;5.276;2023-11-19T12:20:55;13.30;99.90
39017;DHT22;24784;45.582;5.276;2023-11-19T12:23:22;13.40;99.90
39017;DHT22;24784;45.582;5.276;2023-11-19T12:25:48;13.40;99.90
39017;DHT22;24784;45.582;5.276;2023-11-19T12:28:17;13.40;99.90
39017;DHT22;24784;45.582;5.276;2023-11-19T12:30:43;13.50;99.90
39017;DHT22;24784;45.582;5.276;2023-11-19T12:33:10;13.70;99.90
39017;DHT22;24784;45.582;5.276;2023-11-19T12:35:43;13.80;99.90
39017;DHT22;24784;45.582;5.276;2023-11-19T12:38:25;13.70;99.90
39017;DHT22;24784;45.582;5.276;2023-11-19T12:41:07;13.70;99.90
39017;DHT22;24784;45.582;5.276;2023-11-19T12:43:34;13.70;99.90
39017;DHT22;24784;45.582;5.276;2023-11-19T12:46:00;13.70;99.90
39017;DHT22;24784;45.582;5.276;2023-11-19T12:48:26;13.70;99.90
39017;DHT22;24784;45.582;5.276;2023-11-19T12:50:55;13.70;99.90
39017;DHT22;24784;45.582;5.276;2023-11-19T12:53:24;13.60;99.90
39017;DHT22;24784;45.582;5.276;2023-11-19T12:55:54;13.60;99.90
39017;DHT22;24784;45.582;5.276;2023-11-19T12:58:35;13.60;99.90
39017;DHT22;24784;45.582;5.276;2023-11-19T13:01:07;13.50;99.90
39017;DHT22;24784;45.582;5.276;2023-11-19T13:03:34;13.50;99.90
39017;DHT22;24784;45.582;5.276;2023-11-19T13:08:42;13.50;99.90
39017;DHT22;24784;45.582;5.276;2023-11-19T13:11:09;13.50;99.90
39017;DHT22;24784;45.582;5.276;2023-11-19T13:13:54;13.40;99.90
39017;DHT22;24784;45.582;5.276;2023-11-19T13:16:19;13.40;99.90
39017;DHT22;24784;45.582;5.276;2023-11-19T13:18:45;13.30;99.90
39017;DHT22;24784;45.582;5.276;2023-11-19T13:21:10;13.40;99.90
39017;DHT22;24784;45.582;5.276;2023-11-19T13:23:36;13.40;99.90
39017;DHT22;24784;45.582;5.276;2023-11-19T13:26:02;13.40;99.90
39017;DHT22;24784;45.582;5.276;2023-11-19T13:28:29;13.40;99.90
39017;DHT22;24784;45.582;5.276;2023-11-19T13:30:54;13.40;99.90
39017;DHT22;24784;45.582;5.276;2023-11-19T13:33:20;13.40;99.90
39017;DHT22;24784;45.582;5.276;2023-11-19T13:35:46;13.40;99.90
39017;DHT22;24784;45.582;5.276;2023-11-19T13:38:11;13.50;99.90
39017;DHT22;24784;45.582;5.276;2023-11-19T13:40:37;13.50;99.90
39017;DHT22;24784;45.582;5.276;2023-11-19T13:43:04;13.50;99.90
39017;DHT22;24784;45.582;5.276;2023-11-19T13:45:30;13.60;99.90
39017;DHT22;24784;45.582;5.276;2023-11-19T13:47:56;13.60;99.90
39017;DHT22;24784;45.582;5.276;2023-11-19T13:50:21;13.60;99.90
39017;DHT22;24784;45.582;5.276;2023-11-19T13:52:48;13.70;99.90
39017;DHT22;24784;45.582;5.276;2023-11-19T13:55:14;13.70;99.90
39017;DHT22;24784;45.582;5.276;2023-11-19T13:57:40;13.70;99.90
39017;DHT22;24784;45.582;5.276;2023-11-19T14:00:11;13.70;99.90
39017;DHT22;24784;45.582;5.276;2023-11-19T14:02:47;13.70;99.90
39017;DHT22;24784;45.582;5.276;2023-11-19T14:05:14;13.70;99.90
39017;DHT22;24784;45.582;5.276;2023-11-19T14:07:41;13.70;99.90
39017;DHT22;24784;45.582;5.276;2023-11-19T14:10:07;13.70;99.90
39017;DHT22;24784;45.582;5.276;2023-11-19T14:12:34;13.70;99.90
39017;DHT22;24784;45.582;5.276;2023-11-19T14:15:01;13.70;99.90
39017;DHT22;24784;45.582;5.276;2023-11-19T14:17:27;13.60;99.90
39017;DHT22;24784;45.582;5.276;2023-11-19T14:19:52;13.60;99.90
39017;DHT22;24784;45.582;5.276;2023-11-19T14:22:18;13.60;99.90
39017;DHT22;24784;45.582;5.276;2023-11-19T14:24:44;13.60;99.90
39017;DHT22;24784;45.582;5.276;2023-11-19T14:27:10;13.60;99.90
39017;DHT22;24784;45.582;5.276;2023-11-19T14:29:36;13.60;99.90
39017;DHT22;24784;45.582;5.276;2023-11-19T14:32:02;13.60;99.90
39017;DHT22;24784;45.582;5.276;2023-11-19T14:34:30;13.60;99.90
39017;DHT22;24784;45.582;5.276;2023-11-19T14:36:56;13.50;99.90
39017;DHT22;24784;45.582;5.276;2023-11-19T14:39:21;13.50;99.90
39017;DHT22;24784;45.582;5.276;2023-11-19T14:41:47;13.50;99.90
39017;DHT22;24784;45.582;5.276;2023-11-19T14:44:13;13.50;99.90
39017;DHT22;24784;45.582;5.276;2023-11-19T14:46:38;13.40;99.90
39017;DHT22;24784;45.582;5.276;2023-11-19T14:49:04;13.40;99.90
39017;DHT22;24784;45.582;5.276;2023-11-19T14:51:30;13.40;99.90
39017;DHT22;24784;45.582;5.276;2023-11-19T14:53:56;13.40;99.90
39017;DHT22;24784;45.582;5.276;2023-11-19T14:56:22;13.40;99.90
39017;DHT22;24784;45.582;5.276;2023-11-19T14:58:47;13.50;99.90
39017;DHT22;24784;45.582;5.276;2023-11-19T15:01:16;13.40;99.90
39017;DHT22;24784;45.582;5.276;2023-11-19T15:03:41;13.40;99.90
39017;DHT22;24784;45.582;5.276;2023-11-19T15:06:07;13.50;99.90
39017;DHT22;24784;45.582;5.276;2023-11-19T15:08:33;13.50;99.90
39017;DHT22;24784;45.582;5.276;2023-11-19T15:10:59;13.50;99.90
39017;DHT22;24784;45.582;5.276;2023-11-19T15:13:27;13.60;99.90
39017;DHT22;24784;45.582;5.276;2023-11-19T15:15:53;13.50;99.90
39017;DHT22;24784;45.582;5.276;2023-11-19T15:18:18;13.50;99.90
39017;DHT22;24784;45.582;5.276;2023-11-19T15:20:45;13.50;99.90
39017;DHT22;24784;45.582;5.276;2023-11-19T15:23:13;13.50;99.90
39017;DHT22;24784;45.582;5.276;2023-11-19T15:25:39;13.40;99.90
39017;DHT22;24784;45.582;5.276;2023-11-19T15:28:04;13.40;99.90
39017;DHT22;24784;45.582;5.276;2023-11-19T15:30:30;13.50;99.90
39017;DHT22;24784;45.582;5.276;2023-11-19T15:32:55;13.40;99.90
39017;DHT22;24784;45.582;5.276;2023-11-19T15:35:21;13.40;99.90
39017;DHT22;24784;45.582;5.276;2023-11-19T15:37:47;13.40;99.90
39017;DHT22;24784;45.582;5.276;2023-11-19T15:40:13;13.30;99.90
39017;DHT22;24784;45.582;5.276;2023-11-19T15:42:40;13.30;99.90
39017;DHT22;24784;45.582;5.276;2023-11-19T15:45:06;13.20;99.90
39017;DHT22;24784;45.582;5.276;2023-11-19T15:47:35;13.10;99.90
39017;DHT22;24784;45.582;5.276;2023-11-19T15:50:04;13.10;99.90
39017;DHT22;24784;45.582;5.276;2023-11-19T15:52:30;13.10;99.90
39017;DHT22;24784;45.582;5.276;2023-11-19T15:54:56;13.10;99.90
39017;DHT22;24784;45.582;5.276;2023-11-19T15:57:22;13.10;99.90
39017;DHT22;24784;45.582;5.276;2023-11-19T15:59:48;13.00;99.90
39017;DHT22;24784;45.582;5.276;2023-11-19T16:02:14;13.00;99.90
39017;DHT22;24784;45.582;5.276;2023-11-19T16:04:39;13.10;99.90
39017;DHT22;24784;45.582;5.276;2023-11-19T16:07:05;13.00;99.90
39017;DHT22;24784;45.582;5.276;2023-11-19T16:09:31;13.10;99.90
39017;DHT22;24784;45.582;5.276;2023-11-19T16:11:57;13.00;99.90